Time;durP1;ratioP1;P1;durP2;ratioP2;P2;SDS_P1;SDS_P2;PMS_P1;PMS_P2;Temp;Humidity;BMP_temperature;BMP_pressure;BME280_temperature;BME280_humidity;BME280_pressure;Samples;Min_cycle;Max_cycle;Signal;HPM_P1;HPM_P2
2022/09/18 00:01:17;;;;;;;2.92;0.10;;;11.50;99.90;;;;;;5053685;28;20378;-74
2022/09/18 00:03:43;;;;;;;8.35;0.47;;;11.60;99.90;;;;;;5053487;28;20074;-75
2022/09/18 00:06:11;;;;;;;3.83;0.00;;;11.60;99.90;;;;;;5053506;28;20052;-75
2022/09/18 00:08:38;;;;;;;6.05;0.20;;;11.60;99.90;;;;;;5053409;28;20025;-75
2022/09/18 00:11:06;;;;;;;1.23;0.00;;;11.50;99.90;;;;;;5053428;28;20013;-75
2022/09/18 00:13:33;;;;;;;3.25;0.00;;;11.50;99.90;;;;;;5052151;28;20428;-74
2022/09/18 00:15:59;;;;;;;4.97;0.17;;;11.50;99.90;;;;;;5053517;28;20029;-74
2022/09/18 00:18:25;;;;;;;0.63;0.00;;;11.40;99.90;;;;;;5053678;28;20159;-75
2022/09/18 00:20:50;;;;;;;4.88;0.20;;;11.40;99.90;;;;;;5053354;28;20024;-75
2022/09/18 00:23:16;;;;;;;3.40;0.22;;;11.40;99.90;;;;;;5053150;28;20057;-75
2022/09/18 00:25:41;;;;;;;5.93;0.35;;;11.40;99.90;;;;;;5051934;28;20048;-74
2022/09/18 00:28:07;;;;;;;2.45;0.28;;;11.40;99.90;;;;;;5053299;28;20014;-75
2022/09/18 00:30:33;;;;;;;2.80;0.25;;;11.40;99.90;;;;;;5052134;28;20014;-74
2022/09/18 00:32:58;;;;;;;2.97;0.47;;;11.40;99.90;;;;;;5053636;28;20031;-74
2022/09/18 00:35:24;;;;;;;1.63;0.13;;;11.40;99.90;;;;;;5053630;28;20063;-74
2022/09/18 00:37:49;;;;;;;1.45;0.20;;;11.40;99.90;;;;;;5051941;28;20079;-75
2022/09/18 00:40:15;;;;;;;0.50;0.00;;;11.40;99.90;;;;;;5053246;28;20033;-75
2022/09/18 00:42:42;;;;;;;0.73;0.00;;;11.40;99.90;;;;;;5053190;28;20432;-75
2022/09/18 00:45:09;;;;;;;1.65;0.20;;;11.30;99.90;;;;;;5051785;28;20064;-75
2022/09/18 00:47:40;;;;;;;3.78;0.20;;;11.30;99.90;;;;;;5051906;28;20385;-75
2022/09/18 00:50:14;;;;;;;1.55;0.10;;;11.30;99.90;;;;;;5053492;28;20032;-75
2022/09/18 00:52:48;;;;;;;1.88;0.38;;;11.30;99.90;;;;;;5053605;28;20021;-75
2022/09/18 00:55:17;;;;;;;4.80;0.10;;;11.30;99.90;;;;;;5053102;28;20044;-75
2022/09/18 00:57:48;;;;;;;2.80;0.20;;;11.40;99.90;;;;;;5052881;28;20065;-75
2022/09/18 01:00:14;;;;;;;4.70;0.00;;;11.40;99.90;;;;;;5051780;28;20036;-75
2022/09/18 01:02:41;;;;;;;6.50;0.00;;;11.40;99.90;;;;;;5052455;28;20025;-77
2022/09/18 01:05:08;;;;;;;10.30;0.35;;;11.40;99.90;;;;;;5054109;28;20021;-77
2022/09/18 01:07:59;;;;;;;5.85;0.10;;;11.40;99.90;;;;;;5054411;28;20029;-77
2022/09/18 01:10:36;;;;;;;4.80;0.52;;;11.40;99.90;;;;;;5054738;28;20027;-77
2022/09/18 01:14:07;;;;;;;3.15;0.00;;;11.40;99.90;;;;;;5057989;28;20029;-78
2022/09/18 01:16:40;;;;;;;10.68;0.28;;;11.40;99.90;;;;;;5056257;28;20440;-78
2022/09/18 01:19:32;;;;;;;8.73;0.00;;;11.40;99.90;;;;;;5056418;28;20021;-78
2022/09/18 01:22:01;;;;;;;6.78;0.10;;;11.40;99.90;;;;;;5054673;28;20040;-78
2022/09/18 01:24:44;;;;;;;4.50;0.05;;;11.40;99.90;;;;;;5056962;28;20025;-78
2022/09/18 01:27:29;;;;;;;0.43;0.00;;;11.50;99.90;;;;;;5057414;28;20013;-77
2022/09/18 01:30:07;;;;;;;15.00;0.80;;;11.40;99.90;;;;;;5057257;28;20474;-77
2022/09/18 01:32:47;;;;;;;5.70;0.00;;;11.50;99.90;;;;;;5056949;28;20029;-77
2022/09/18 01:35:31;;;;;;;3.03;0.60;;;11.50;99.90;;;;;;5055850;28;20402;-76
2022/09/18 01:38:07;;;;;;;8.00;0.00;;;11.50;99.90;;;;;;5055479;28;20031;-77
2022/09/18 01:40:39;;;;;;;4.55;0.43;;;11.40;99.90;;;;;;5056619;28;20033;-76
2022/09/18 01:43:07;;;;;;;3.97;0.10;;;11.40;99.90;;;;;;5057037;28;20104;-77
2022/09/18 01:45:37;;;;;;;1.23;0.00;;;11.40;99.90;;;;;;5055131;28;20091;-75
2022/09/18 01:48:07;;;;;;;2.33;0.00;;;11.40;99.90;;;;;;5056535;28;20482;-75
2022/09/18 01:50:37;;;;;;;1.67;0.00;;;11.40;99.90;;;;;;5056057;28;20017;-75
2022/09/18 01:53:06;;;;;;;4.20;0.57;;;11.40;99.90;;;;;;5054859;28;20451;-75
2022/09/18 01:55:34;;;;;;;4.20;0.00;;;11.40;99.90;;;;;;5055847;28;20075;-74
2022/09/18 01:58:05;;;;;;;5.70;0.10;;;11.40;99.90;;;;;;5055937;28;20029;-76
2022/09/18 02:00:31;;;;;;;5.45;0.52;;;11.40;99.90;;;;;;5054593;28;20367;-75
2022/09/18 02:03:08;;;;;;;2.15;0.00;;;11.50;99.90;;;;;;5055845;28;20020;-76
2022/09/18 02:05:42;;;;;;;3.58;0.10;;;11.50;99.90;;;;;;5055663;28;20056;-75
2022/09/18 02:08:20;;;;;;;5.88;0.10;;;11.50;99.90;;;;;;5055746;28;20025;-75
2022/09/18 02:11:09;;;;;;;1.60;0.00;;;11.50;99.90;;;;;;5054484;28;20367;-76
2022/09/18 02:13:47;;;;;;;6.13;0.75;;;11.50;99.90;;;;;;5054521;28;20048;-76
2022/09/18 02:16:26;;;;;;;5.70;0.00;;;11.50;99.90;;;;;;5054422;28;20032;-76
2022/09/18 02:18:56;;;;;;;5.05;0.00;;;11.50;99.90;;;;;;5054540;28;20025;-77
2022/09/18 02:21:27;;;;;;;4.43;0.20;;;11.50;99.90;;;;;;5056000;28;20029;-76
2022/09/18 02:23:57;;;;;;;1.95;0.77;;;11.40;99.90;;;;;;5054129;28;20033;-76
2022/09/18 02:26:23;;;;;;;3.95;0.00;;;11.40;99.90;;;;;;5054134;28;20393;-76
2022/09/18 02:28:49;;;;;;;5.18;0.00;;;11.30;99.90;;;;;;5055746;28;20020;-76
2022/09/18 02:31:16;;;;;;;1.42;0.00;;;11.30;99.90;;;;;;5054085;28;20024;-75
2022/09/18 02:33:42;;;;;;;0.90;0.00;;;11.30;99.90;;;;;;5055340;28;20032;-75
2022/09/18 02:36:33;;;;;;;2.47;0.17;;;11.30;99.90;;;;;;5055139;28;20060;-76
2022/09/18 02:39:07;;;;;;;3.63;0.00;;;11.20;99.90;;;;;;5055598;28;20474;-76
2022/09/18 02:41:45;;;;;;;1.20;0.00;;;11.30;99.90;;;;;;5055189;28;20025;-76
2022/09/18 02:44:17;;;;;;;0.90;0.10;;;11.30;99.90;;;;;;5055112;28;20436;-76
2022/09/18 02:47:14;;;;;;;2.20;0.00;;;11.30;99.90;;;;;;5055197;28;20032;-76
2022/09/18 02:49:56;;;;;;;3.03;0.00;;;11.30;99.90;;;;;;5054047;28;20134;-76
2022/09/18 02:52:57;;;;;;;0.70;0.00;;;11.20;99.90;;;;;;5053626;28;20028;-76
2022/09/18 02:55:32;;;;;;;3.55;0.32;;;11.20;99.90;;;;;;5052682;28;20025;-76
2022/09/18 02:58:00;;;;;;;2.50;0.25;;;11.10;99.90;;;;;;5050802;28;20056;-76
2022/09/18 03:00:28;;;;;;;3.80;0.00;;;11.10;99.90;;;;;;5054987;28;20147;-76
2022/09/18 03:02:58;;;;;;;0.93;0.00;;;11.00;99.90;;;;;;5053504;28;20044;-76
2022/09/18 03:05:24;;;;;;;2.10;0.22;;;11.10;99.90;;;;;;5054532;28;20025;-76
2022/09/18 03:07:50;;;;;;;0.05;0.00;;;11.00;99.90;;;;;;5053479;28;20098;-76
2022/09/18 03:10:16;;;;;;;3.38;0.10;;;11.00;99.90;;;;;;5055044;28;20075;-76
2022/09/18 03:12:41;;;;;;;2.28;0.38;;;11.00;99.90;;;;;;5054472;28;20533;-76
2022/09/18 03:15:07;;;;;;;4.20;0.00;;;11.00;99.90;;;;;;5054414;28;20028;-77
2022/09/18 03:17:33;;;;;;;0.60;0.00;;;11.00;99.90;;;;;;5054724;28;20032;-75
2022/09/18 03:19:58;;;;;;;2.53;0.00;;;11.00;99.90;;;;;;5054629;28;20025;-75
2022/09/18 03:22:24;;;;;;;1.77;0.00;;;11.00;99.90;;;;;;5054832;28;20417;-75
2022/09/18 03:24:50;;;;;;;5.28;0.00;;;11.00;99.90;;;;;;5052525;28;20025;-76
2022/09/18 03:27:16;;;;;;;2.85;0.00;;;11.00;99.90;;;;;;5054038;28;20021;-76
2022/09/18 03:29:44;;;;;;;1.05;0.00;;;11.10;99.90;;;;;;5054170;28;20049;-76
2022/09/18 03:32:10;;;;;;;1.60;0.05;;;11.10;99.90;;;;;;5054456;28;20474;-76
2022/09/18 03:34:36;;;;;;;1.27;0.00;;;11.10;99.90;;;;;;5053533;28;20025;-76
2022/09/18 03:37:02;;;;;;;3.00;0.00;;;11.10;99.90;;;;;;5053878;28;20031;-75
2022/09/18 03:39:30;;;;;;;2.70;0.55;;;11.10;99.90;;;;;;5052976;28;20545;-75
2022/09/18 03:41:57;;;;;;;4.32;0.00;;;11.20;99.90;;;;;;5054455;28;20025;-74
2022/09/18 03:44:22;;;;;;;4.00;0.08;;;11.20;99.90;;;;;;5053660;28;20402;-74
2022/09/18 03:46:48;;;;;;;4.63;0.32;;;11.10;99.90;;;;;;5053626;28;20032;-74
2022/09/18 03:49:13;;;;;;;4.22;0.00;;;11.20;99.90;;;;;;5055207;28;20074;-74
2022/09/18 03:51:39;;;;;;;2.83;0.00;;;11.10;99.90;;;;;;5056983;28;20410;-74
2022/09/18 03:54:05;;;;;;;2.30;0.00;;;11.10;99.90;;;;;;5054056;28;20033;-73
2022/09/18 03:56:31;;;;;;;2.40;0.00;;;11.10;99.90;;;;;;5052677;28;20025;-74
2022/09/18 03:58:56;;;;;;;2.38;0.10;;;11.10;99.90;;;;;;5054376;28;20052;-74
2022/09/18 04:01:22;;;;;;;2.17;0.00;;;11.10;99.90;;;;;;5054776;28;20033;-74
2022/09/18 04:03:48;;;;;;;2.33;0.00;;;11.10;99.90;;;;;;5055483;28;20053;-74
2022/09/18 04:06:14;;;;;;;7.43;0.17;;;11.00;99.90;;;;;;5054110;28;20029;-74
2022/09/18 04:08:40;;;;;;;6.25;0.10;;;11.00;99.90;;;;;;5053523;28;20022;-74
2022/09/18 04:11:05;;;;;;;3.63;0.00;;;11.00;99.90;;;;;;5053535;28;20013;-74
2022/09/18 04:13:32;;;;;;;3.13;0.00;;;11.00;99.90;;;;;;5054021;28;20013;-74
2022/09/18 04:15:58;;;;;;;4.57;0.00;;;11.00;99.90;;;;;;5052585;28;20021;-75
2022/09/18 04:18:24;;;;;;;1.98;0.00;;;11.00;99.90;;;;;;5053706;28;20395;-75
2022/09/18 04:20:50;;;;;;;0.75;0.00;;;11.00;99.90;;;;;;5053797;28;20025;-75
2022/09/18 04:23:16;;;;;;;4.47;0.00;;;11.00;99.90;;;;;;5053351;28;20028;-74
2022/09/18 04:25:42;;;;;;;4.43;0.90;;;11.10;99.90;;;;;;5052256;28;20021;-74
2022/09/18 04:28:08;;;;;;;3.45;0.00;;;11.20;99.90;;;;;;5052497;28;20017;-75
2022/09/18 04:30:34;;;;;;;2.15;0.15;;;11.20;99.90;;;;;;5053394;28;20032;-75
2022/09/18 04:33:00;;;;;;;8.38;0.10;;;11.20;99.90;;;;;;5053031;28;20466;-74
2022/09/18 04:35:25;;;;;;;3.47;0.05;;;11.20;99.90;;;;;;5053090;28;20086;-74
2022/09/18 04:37:51;;;;;;;1.45;0.05;;;11.20;99.90;;;;;;5053648;28;20017;-74
2022/09/18 04:40:17;;;;;;;0.35;0.00;;;11.10;99.90;;;;;;5053324;28;20032;-73
2022/09/18 04:42:42;;;;;;;1.77;0.10;;;11.20;99.90;;;;;;5051861;28;20075;-74
2022/09/18 04:45:09;;;;;;;5.28;0.35;;;11.20;99.90;;;;;;5052295;28;20382;-74
2022/09/18 04:47:35;;;;;;;0.32;0.00;;;11.20;99.90;;;;;;5057038;28;20474;-74
2022/09/18 04:50:00;;;;;;;4.82;0.10;;;11.20;99.90;;;;;;5056956;28;20017;-74
2022/09/18 04:52:26;;;;;;;3.05;0.45;;;11.20;99.90;;;;;;5055627;28;20048;-74
2022/09/18 04:54:51;;;;;;;1.98;0.00;;;11.20;99.90;;;;;;5055695;28;20375;-74
2022/09/18 04:57:17;;;;;;;2.75;0.00;;;11.20;99.90;;;;;;5056836;28;20028;-74
2022/09/18 04:59:43;;;;;;;4.03;0.00;;;11.20;99.90;;;;;;5055600;28;20025;-74
2022/09/18 05:02:08;;;;;;;1.08;0.00;;;11.20;99.90;;;;;;5055575;28;20021;-74
2022/09/18 05:04:34;;;;;;;1.17;0.20;;;11.20;99.90;;;;;;5056641;28;20078;-73
2022/09/18 05:07:00;;;;;;;3.60;0.10;;;11.20;99.90;;;;;;5056899;28;20021;-75
2022/09/18 05:09:25;;;;;;;2.40;0.20;;;11.10;99.90;;;;;;5056669;28;20017;-73
2022/09/18 05:11:53;;;;;;;2.13;0.00;;;11.20;99.90;;;;;;5056919;28;20428;-73
2022/09/18 05:14:19;;;;;;;2.30;0.00;;;11.20;99.90;;;;;;5056472;28;20025;-73
2022/09/18 05:16:44;;;;;;;6.03;0.00;;;11.10;99.90;;;;;;5044830;23;20494;-74
2022/09/18 05:19:10;;;;;;;3.08;0.35;;;11.10;99.90;;;;;;5033519;28;20026;-74
2022/09/18 05:21:35;;;;;;;0.20;0.00;;;11.10;99.90;;;;;;5033166;28;20025;-75
2022/09/18 05:24:01;;;;;;;6.95;0.20;;;11.10;99.90;;;;;;5034606;28;20021;-75
2022/09/18 05:26:30;;;;;;;2.50;0.00;;;11.10;99.90;;;;;;5034262;28;20108;-75
2022/09/18 05:28:55;;;;;;;0.30;0.00;;;11.10;99.90;;;;;;5034293;28;20025;-74
2022/09/18 05:31:21;;;;;;;4.90;0.00;;;11.10;99.90;;;;;;5032903;28;20156;-75
2022/09/18 05:33:46;;;;;;;2.42;0.43;;;11.10;99.90;;;;;;5034962;28;20026;-76
2022/09/18 05:36:12;;;;;;;4.72;0.20;;;11.00;99.90;;;;;;5036730;28;20041;-75
2022/09/18 05:38:38;;;;;;;1.77;0.00;;;11.10;99.90;;;;;;5034895;28;20026;-76
2022/09/18 05:41:03;;;;;;;0.95;0.00;;;11.10;99.90;;;;;;5034865;28;20102;-75
2022/09/18 05:43:29;;;;;;;1.60;0.00;;;11.10;99.90;;;;;;5036045;28;20021;-75
2022/09/18 05:45:56;;;;;;;2.20;0.00;;;11.10;99.90;;;;;;5035882;28;20017;-76
2022/09/18 05:48:22;;;;;;;2.13;0.08;;;11.10;99.90;;;;;;5036336;28;20044;-76
2022/09/18 05:50:49;;;;;;;2.40;0.00;;;11.10;99.90;;;;;;5034814;28;20479;-75
2022/09/18 05:53:19;;;;;;;2.55;0.00;;;11.10;99.90;;;;;;5036507;28;20049;-76
2022/09/18 05:55:45;;;;;;;0.95;0.00;;;11.10;99.90;;;;;;5035871;28;20383;-75
2022/09/18 05:58:14;;;;;;;2.55;0.08;;;11.10;99.90;;;;;;5035609;28;20106;-75
2022/09/18 06:00:40;;;;;;;2.45;0.00;;;11.10;99.90;;;;;;5036030;28;20021;-76
2022/09/18 06:03:11;;;;;;;0.00;0.00;;;11.10;99.90;;;;;;5036049;28;20021;-76
2022/09/18 06:05:37;;;;;;;1.55;0.00;;;11.20;99.90;;;;;;5035593;28;20026;-76
2022/09/18 06:08:08;;;;;;;3.15;0.00;;;11.20;99.90;;;;;;5035695;28;20021;-76
2022/09/18 06:10:39;;;;;;;2.15;0.00;;;11.20;99.90;;;;;;5035770;28;20097;-76
2022/09/18 06:13:11;;;;;;;1.00;0.00;;;11.30;99.90;;;;;;5035546;28;20024;-76
2022/09/18 06:15:37;;;;;;;2.13;0.00;;;11.30;99.90;;;;;;5035405;28;20063;-76
2022/09/18 06:18:04;;;;;;;3.47;0.50;;;11.30;99.90;;;;;;5035817;28;20466;-75
2022/09/18 06:20:30;;;;;;;0.82;0.00;;;11.30;99.90;;;;;;5034307;28;20033;-75
2022/09/18 06:23:00;;;;;;;2.50;0.68;;;11.40;99.90;;;;;;5035251;28;20028;-75
2022/09/18 06:25:26;;;;;;;0.93;0.00;;;11.50;99.90;;;;;;5035331;28;20030;-75
2022/09/18 06:27:57;;;;;;;2.10;0.00;;;11.50;99.90;;;;;;5033890;28;20511;-75
2022/09/18 06:30:24;;;;;;;0.52;0.20;;;11.50;99.90;;;;;;5033880;28;20025;-75
2022/09/18 06:32:50;;;;;;;0.75;0.00;;;11.60;99.90;;;;;;5033764;28;20021;-75
2022/09/18 06:35:16;;;;;;;5.47;0.00;;;11.60;99.90;;;;;;5035520;28;20028;-75
2022/09/18 06:37:42;;;;;;;0.93;0.00;;;12.40;99.90;;;;;;5035066;28;20030;-75
2022/09/18 06:40:08;;;;;;;1.30;0.00;;;11.70;99.90;;;;;;5034979;28;20030;-76
2022/09/18 06:42:33;;;;;;;1.13;0.00;;;11.80;99.90;;;;;;5033798;28;20108;-76
2022/09/18 06:44:59;;;;;;;3.30;0.00;;;11.80;99.90;;;;;;5034772;28;20500;-76
2022/09/18 06:47:24;;;;;;;3.80;0.00;;;11.80;99.90;;;;;;5034788;28;20025;-76
2022/09/18 06:49:50;;;;;;;1.45;0.00;;;11.90;99.90;;;;;;5034908;28;20068;-76
2022/09/18 06:52:15;;;;;;;2.97;0.20;;;11.90;99.90;;;;;;5034705;28;20040;-76
2022/09/18 06:54:41;;;;;;;1.25;0.00;;;12.00;99.90;;;;;;5034875;28;20382;-76
2022/09/18 06:57:07;;;;;;;0.70;0.00;;;12.00;99.90;;;;;;5033550;28;20029;-74
2022/09/18 06:59:32;;;;;;;1.75;0.00;;;12.10;99.90;;;;;;5033965;28;20052;-75
2022/09/18 07:01:58;;;;;;;1.13;0.45;;;12.10;99.90;;;;;;5033328;28;20029;-75
2022/09/18 07:04:23;;;;;;;1.35;0.15;;;12.20;99.90;;;;;;5034477;28;20030;-75
2022/09/18 07:06:49;;;;;;;1.35;0.20;;;12.30;99.90;;;;;;5033171;28;20116;-75
2022/09/18 07:09:14;;;;;;;0.20;0.00;;;12.30;99.90;;;;;;5034064;28;20134;-74
2022/09/18 07:11:40;;;;;;;1.13;0.03;;;12.40;99.90;;;;;;5033185;28;20481;-75
2022/09/18 07:14:07;;;;;;;1.48;0.00;;;12.40;99.90;;;;;;5034378;28;20385;-75
2022/09/18 07:16:33;;;;;;;3.15;0.00;;;12.40;99.90;;;;;;5034722;28;20034;-75
2022/09/18 07:18:59;;;;;;;2.38;0.00;;;12.60;99.90;;;;;;5034568;28;20025;-76
2022/09/18 07:21:25;;;;;;;2.63;0.47;;;12.60;99.90;;;;;;5034174;28;20390;-75
2022/09/18 07:23:50;;;;;;;2.58;0.00;;;12.60;99.90;;;;;;5034091;28;20029;-75
2022/09/18 07:26:17;;;;;;;1.25;0.00;;;12.60;99.90;;;;;;5033966;28;20022;-74
2022/09/18 07:28:43;;;;;;;1.08;0.00;;;12.70;99.90;;;;;;5034231;28;20101;-75
2022/09/18 07:31:09;;;;;;;4.13;0.00;;;12.80;99.90;;;;;;5033904;28;20486;-75
2022/09/18 07:33:36;;;;;;;3.47;0.08;;;12.90;99.90;;;;;;5034172;28;20016;-75
2022/09/18 07:36:04;;;;;;;1.10;0.00;;;13.00;99.90;;;;;;5032551;28;20024;-74
2022/09/18 07:38:29;;;;;;;1.23;0.00;;;13.10;99.90;;;;;;5033817;28;20029;-74
2022/09/18 07:40:55;;;;;;;0.70;0.00;;;13.20;99.90;;;;;;5032468;28;20830;-74
2022/09/18 07:43:21;;;;;;;1.35;0.00;;;13.30;99.90;;;;;;5034028;28;20025;-74
2022/09/18 07:45:47;;;;;;;0.43;0.00;;;13.40;99.90;;;;;;5034195;28;20025;-76
2022/09/18 07:48:13;;;;;;;8.90;0.38;;;13.40;99.90;;;;;;5032450;28;20505;-75
2022/09/18 07:50:39;;;;;;;4.43;0.43;;;13.50;99.90;;;;;;5032674;28;20055;-75
2022/09/18 07:53:06;;;;;;;1.75;0.05;;;13.50;99.90;;;;;;5032421;28;20048;-76
2022/09/18 07:55:35;;;;;;;0.30;0.00;;;13.50;99.90;;;;;;5032253;28;20018;-75
2022/09/18 07:58:01;;;;;;;;;;;13.60;99.90;;;;;;5033812;28;20621;-76
2022/09/18 08:00:30;;;;;;;0.20;0.00;;;13.70;99.90;;;;;;5033460;28;20043;-75
2022/09/18 08:03:08;;;;;;;7.32;0.32;;;13.70;99.90;;;;;;5033483;28;20467;-74
2022/09/18 08:05:34;;;;;;;1.83;0.00;;;13.80;99.90;;;;;;5035346;28;20037;-74
2022/09/18 08:08:12;;;;;;;0.88;0.10;;;13.80;99.90;;;;;;5034299;28;20040;-75
2022/09/18 08:10:38;;;;;;;0.35;0.10;;;13.70;99.90;;;;;;5033471;28;20041;-74
2022/09/18 08:13:07;;;;;;;1.17;0.00;;;13.60;99.90;;;;;;5034732;28;20026;-74
2022/09/18 08:15:35;;;;;;;;;;;13.50;99.90;;;;;;5033986;28;20033;-74
2022/09/18 08:18:00;;;;;;;0.95;0.00;;;13.50;99.90;;;;;;5032656;28;20342;-74
2022/09/18 08:20:26;;;;;;;1.52;0.00;;;13.40;99.90;;;;;;5033024;28;20022;-74
2022/09/18 08:22:52;;;;;;;1.20;0.00;;;13.30;99.90;;;;;;5032060;28;20028;-74
2022/09/18 08:25:19;;;;;;;1.42;0.00;;;13.20;99.90;;;;;;5032415;28;20025;-73
2022/09/18 08:27:45;;;;;;;0.17;0.00;;;13.30;99.90;;;;;;5034241;28;20017;-73
2022/09/18 08:30:13;;;;;;;0.65;0.00;;;13.40;99.90;;;;;;5034389;28;20021;-73
2022/09/18 08:32:39;;;;;;;1.05;0.00;;;13.50;99.90;;;;;;5034310;28;20021;-72
2022/09/18 08:35:05;;;;;;;2.13;0.00;;;13.60;99.90;;;;;;5033527;28;20025;-72
2022/09/18 08:37:32;;;;;;;1.23;0.00;;;13.60;99.90;;;;;;5032581;28;20024;-73
2022/09/18 08:39:58;;;;;;;1.23;0.20;;;13.80;99.90;;;;;;5032230;28;20025;-73
2022/09/18 08:42:51;;;;;;;3.42;0.15;;;13.80;99.90;;;;;;5034264;28;20083;-73
2022/09/18 08:45:17;;;;;;;2.40;0.00;;;13.90;99.90;;;;;;5033734;28;20112;-76
2022/09/18 08:47:54;;;;;;;1.63;0.15;;;13.90;99.90;;;;;;5031726;28;20486;-76
2022/09/18 08:50:24;;;;;;;1.00;0.00;;;13.90;99.90;;;;;;5033294;28;20045;-76
2022/09/18 08:52:59;;;;;;;1.50;0.00;;;13.80;99.90;;;;;;5031768;28;20030;-76
2022/09/18 08:55:32;;;;;;;0.95;0.00;;;13.70;99.90;;;;;;5033264;28;20026;-77
2022/09/18 08:58:06;;;;;;;0.95;0.38;;;13.70;99.90;;;;;;5033374;28;20032;-76
2022/09/18 09:00:40;;;;;;;2.63;0.38;;;13.70;99.90;;;;;;5032838;28;20109;-75
2022/09/18 09:03:23;;;;;;;2.63;0.20;;;13.70;99.90;;;;;;5033204;28;20079;-75
2022/09/18 09:05:57;;;;;;;1.35;0.00;;;13.70;99.90;;;;;;5032531;28;20033;-75
2022/09/18 09:09:16;;;;;;;5.15;0.95;;;13.80;99.90;;;;;;5033055;28;20151;-76
2022/09/18 09:11:51;;;;;;;0.35;0.00;;;13.80;99.90;;;;;;5031401;28;20025;-76
2022/09/18 09:14:48;;;;;;;1.60;0.00;;;13.80;99.90;;;;;;5032824;28;20108;-74
2022/09/18 09:17:38;;;;;;;1.75;0.00;;;13.80;99.90;;;;;;5022620;28;20060;-74
2022/09/18 09:20:22;;;;;;;12.00;0.75;;;13.80;99.90;;;;;;5032618;28;20032;-73
2022/09/18 09:22:52;;;;;;;0.40;0.00;;;13.90;99.90;;;;;;5031321;28;20032;-74
2022/09/18 09:26:00;;;;;;;6.00;0.55;;;14.00;99.90;;;;;;5034854;28;20494;-78
2022/09/18 09:28:39;;;;;;;3.15;0.00;;;14.20;99.90;;;;;;5032860;28;20037;-76
2022/09/18 09:31:08;;;;;;;4.03;0.08;;;14.40;99.90;;;;;;5033492;28;20022;-75
2022/09/18 09:33:41;;;;;;;2.65;0.40;;;14.50;99.90;;;;;;5036623;28;20025;-76
2022/09/18 09:36:13;;;;;;;0.82;0.00;;;14.60;99.90;;;;;;5036760;28;20021;-76
2022/09/18 09:39:00;;;;;;;1.70;0.00;;;14.70;99.90;;;;;;5036430;28;20022;-76
2022/09/18 09:41:34;;;;;;;3.15;0.10;;;14.60;99.90;;;;;;5036389;28;20029;-76
2022/09/18 09:44:19;;;;;;;4.35;0.45;;;14.60;99.90;;;;;;5035977;28;20033;-74
2022/09/18 09:47:03;;;;;;;0.88;0.00;;;14.50;99.90;;;;;;5035856;28;20041;-74
2022/09/18 09:49:33;;;;;;;2.17;0.00;;;14.40;99.90;;;;;;5034610;28;20026;-76
2022/09/18 09:52:24;;;;;;;6.05;0.32;;;14.30;99.90;;;;;;5035775;28;20022;-76
2022/09/18 09:54:56;;;;;;;2.40;0.00;;;14.30;99.90;;;;;;5035772;28;20037;-76
2022/09/18 09:57:47;;;;;;;5.72;0.13;;;14.40;99.90;;;;;;5036031;28;20029;-76
2022/09/18 10:00:16;;;;;;;8.82;0.10;;;14.50;99.90;;;;;;5036047;28;20112;-77
2022/09/18 10:03:16;;;;;;;3.42;0.38;;;14.60;99.90;;;;;;5035561;28;20026;-77
2022/09/18 10:06:19;;;;;;;2.55;0.30;;;14.80;99.90;;;;;;5034422;28;20038;-76
2022/09/18 10:08:51;;;;;;;1.10;0.15;;;14.80;99.90;;;;;;5013599;28;20557;-76
2022/09/18 10:11:17;;;;;;;0.75;0.00;;;14.90;99.90;;;;;;5031001;28;20036;-76
2022/09/18 10:13:51;;;;;;;2.60;0.00;;;14.80;99.90;;;;;;5034019;28;20022;-76
2022/09/18 10:16:39;;;;;;;1.95;0.00;;;14.70;99.90;;;;;;5034130;28;20079;-76
2022/09/18 10:19:05;;;;;;;1.33;0.00;;;14.70;99.90;;;;;;5035341;28;20104;-76
2022/09/18 10:21:34;;;;;;;0.98;0.00;;;14.80;99.90;;;;;;5035826;28;20057;-76
2022/09/18 10:24:14;;;;;;;4.88;0.20;;;14.90;99.90;;;;;;5035404;28;20025;-77
2022/09/18 10:26:47;;;;;;;1.55;0.10;;;15.00;99.90;;;;;;5033921;28;20474;-76
2022/09/18 10:29:15;;;;;;;5.22;0.00;;;16.40;99.90;;;;;;5033918;28;20018;-76
2022/09/18 10:31:55;;;;;;;3.03;0.00;;;15.00;99.90;;;;;;5035052;28;20424;-77
2022/09/18 10:34:44;;;;;;;1.30;0.00;;;14.90;99.90;;;;;;5034593;28;20023;-78
2022/09/18 10:37:15;;;;;;;4.15;0.00;;;15.00;99.90;;;;;;5036474;28;20033;-77
2022/09/18 10:40:01;;;;;;;2.20;0.15;;;14.90;99.90;;;;;;5034278;28;20074;-76
2022/09/18 10:42:29;;;;;;;3.25;0.00;;;14.90;99.90;;;;;;5033791;28;20547;-76
2022/09/18 10:45:05;;;;;;;2.07;0.23;;;14.70;99.90;;;;;;5035275;28;20021;-76
2022/09/18 10:47:33;;;;;;;5.75;0.28;;;14.60;99.90;;;;;;5034012;28;20481;-77
2022/09/18 10:50:05;;;;;;;7.50;0.93;;;14.50;99.90;;;;;;5034753;28;20021;-76
2022/09/18 10:52:47;;;;;;;5.15;0.43;;;14.40;99.90;;;;;;5033425;28;20026;-77
2022/09/18 10:55:15;;;;;;;1.83;0.13;;;14.20;99.90;;;;;;5035019;28;20485;-76
2022/09/18 10:57:58;;;;;;;3.10;0.15;;;14.00;99.90;;;;;;5033405;28;20028;-75
2022/09/18 11:00:24;;;;;;;1.67;0.00;;;13.90;99.90;;;;;;5035513;28;20040;-77
2022/09/18 11:03:19;;;;;;;3.58;0.10;;;13.80;99.90;;;;;;5035667;28;20029;-77
2022/09/18 11:05:52;;;;;;;3.47;0.00;;;13.80;99.90;;;;;;5033752;28;20029;-77
2022/09/18 11:08:23;;;;;;;4.32;0.00;;;13.80;99.90;;;;;;5034651;28;20385;-76
2022/09/18 11:10:52;;;;;;;2.03;0.00;;;13.80;99.90;;;;;;5033279;28;20018;-76
2022/09/18 11:13:25;;;;;;;2.28;0.00;;;14.80;99.90;;;;;;5034356;28;20017;-75
2022/09/18 11:16:01;;;;;;;1.95;0.00;;;13.90;99.90;;;;;;5032621;28;20029;-74
2022/09/18 11:18:28;;;;;;;2.08;0.13;;;14.00;99.90;;;;;;5034136;28;20053;-75
2022/09/18 11:20:56;;;;;;;6.97;0.40;;;14.00;99.90;;;;;;5034170;28;20025;-74
2022/09/18 11:23:29;;;;;;;3.33;0.00;;;14.00;99.90;;;;;;5032606;28;20032;-74
2022/09/18 11:26:18;;;;;;;4.00;0.43;;;14.10;99.90;;;;;;5034066;28;20033;-74
2022/09/18 11:28:59;;;;;;;1.20;0.35;;;14.10;99.90;;;;;;5034294;28;20430;-73
2022/09/18 11:31:33;;;;;;;3.33;0.00;;;14.10;99.90;;;;;;5033865;28;20498;-73
2022/09/18 11:33:59;;;;;;;1.55;0.00;;;14.20;99.90;;;;;;5034127;28;20435;-73
2022/09/18 11:36:29;;;;;;;1.75;0.00;;;14.30;99.90;;;;;;5033773;28;20478;-74
2022/09/18 11:38:57;;;;;;;4.65;0.30;;;14.20;99.90;;;;;;5032507;28;20056;-73
2022/09/18 11:41:34;;;;;;;4.65;0.65;;;14.10;99.90;;;;;;5033812;28;20470;-72
2022/09/18 11:44:03;;;;;;;2.70;0.43;;;14.00;99.90;;;;;;5034136;28;20025;-72
2022/09/18 11:46:47;;;;;;;0.90;0.00;;;13.80;99.90;;;;;;5032211;28;20026;-73
2022/09/18 11:49:18;;;;;;;0.28;0.10;;;13.80;99.90;;;;;;5032282;28;20060;-72
2022/09/18 11:51:56;;;;;;;2.60;0.00;;;13.80;99.90;;;;;;5033644;28;20036;-78
2022/09/18 11:54:41;;;;;;;4.85;0.13;;;13.80;99.90;;;;;;5033766;28;20026;-75
2022/09/18 11:57:19;;;;;;;1.65;0.17;;;13.90;99.90;;;;;;5033211;28;20037;-75
2022/09/18 11:59:59;;;;;;;0.55;0.00;;;13.90;99.90;;;;;;5033075;28;20498;-76
2022/09/18 12:02:38;;;;;;;1.27;0.00;;;13.80;99.90;;;;;;5031967;28;20029;-74
2022/09/18 12:05:51;;;;;;;1.30;0.00;;;13.80;99.90;;;;;;5033633;28;20035;-74
2022/09/18 12:08:40;;;;;;;0.38;0.00;;;13.80;99.90;;;;;;5029365;28;20494;-74
2022/09/18 12:11:15;;;;;;;0.45;0.00;;;13.80;99.90;;;;;;5033391;28;20029;-74
2022/09/18 12:13:53;;;;;;;4.72;0.00;;;13.80;99.90;;;;;;5033301;28;20053;-74
2022/09/18 12:16:49;;;;;;;1.35;0.05;;;13.80;99.90;;;;;;5031611;28;20057;-71
2022/09/18 12:19:17;;;;;;;2.30;0.22;;;13.70;99.90;;;;;;5032414;28;20079;-71
2022/09/18 12:21:56;;;;;;;0.88;0.15;;;13.60;99.90;;;;;;5032660;28;20033;-71
2022/09/18 12:24:22;;;;;;;0.40;0.00;;;13.60;99.90;;;;;;5031516;28;20406;-71
2022/09/18 12:27:06;;;;;;;1.20;0.10;;;13.60;99.90;;;;;;5033032;28;20014;-73
2022/09/18 12:29:59;;;;;;;2.33;0.00;;;13.60;99.90;;;;;;5032539;28;20025;-73
2022/09/18 12:33:01;;;;;;;1.85;0.00;;;13.80;99.90;;;;;;5031713;28;20022;-73
2022/09/18 12:35:27;;;;;;;3.70;0.00;;;13.80;99.90;;;;;;5031471;28;20030;-73
2022/09/18 12:38:24;;;;;;;2.72;0.00;;;13.80;99.90;;;;;;5031936;28;20466;-73
2022/09/18 12:41:13;;;;;;;2.95;0.10;;;13.70;99.90;;;;;;5032965;28;20036;-73
2022/09/18 12:44:05;;;;;;;2.60;0.20;;;13.70;99.90;;;;;;5030183;28;20021;-72
2022/09/18 12:46:55;;;;;;;0.85;0.00;;;13.70;99.90;;;;;;5026617;28;20037;-72
2022/09/18 12:49:48;;;;;;;4.55;0.28;;;13.70;99.90;;;;;;5033042;28;20025;-72
2022/09/18 12:52:32;;;;;;;2.53;0.00;;;13.60;99.90;;;;;;5030420;28;20088;-75
2022/09/18 12:55:18;;;;;;;2.40;0.00;;;13.70;99.90;;;;;;5032721;28;20029;-74
2022/09/18 12:58:22;;;;;;;1.85;0.20;;;13.60;99.90;;;;;;5029787;28;20065;-74
2022/09/18 13:00:49;;;;;;;5.28;0.20;;;13.60;99.90;;;;;;5031326;28;20395;-75
2022/09/18 13:03:30;;;;;;;5.90;0.00;;;13.60;99.90;;;;;;5032744;28;20482;-75
2022/09/18 13:06:11;;;;;;;3.70;0.32;;;13.40;99.90;;;;;;5032670;28;20095;-73
2022/09/18 13:08:44;;;;;;;2.53;0.25;;;13.30;99.90;;;;;;5036666;28;20018;-73
2022/09/18 13:11:41;;;;;;;2.38;0.10;;;13.20;99.90;;;;;;5036707;28;20030;-73
2022/09/18 13:14:18;;;;;;;0.75;0.10;;;13.10;99.90;;;;;;5035742;28;20037;-73